createdAt,value
2018-06-30T00:00:29.861Z,992.27
2018-06-30T00:01:30.045Z,992.24
2018-06-30T00:02:30.236Z,992.29
2018-06-30T00:03:30.399Z,992.30
2018-06-30T00:04:30.574Z,992.30
2018-06-30T00:05:30.753Z,992.28
2018-06-30T00:06:30.925Z,992.31
2018-06-30T00:07:31.099Z,992.28
2018-06-30T00:08:31.272Z,992.31
2018-06-30T00:09:31.456Z,992.30
2018-06-30T00:10:31.667Z,992.34
2018-06-30T00:11:31.810Z,992.31
2018-06-30T00:12:31.993Z,992.34
2018-06-30T00:13:32.167Z,992.34
2018-06-30T00:14:32.344Z,992.35
2018-06-30T00:15:32.521Z,992.32
2018-06-30T00:16:32.696Z,992.34
2018-06-30T00:17:32.876Z,992.32
2018-06-30T00:18:33.055Z,992.35
2018-06-30T00:19:33.232Z,992.31
2018-06-30T00:20:33.407Z,992.28
2018-06-30T00:21:33.587Z,992.27
2018-06-30T00:22:33.767Z,992.26
2018-06-30T00:23:33.950Z,992.23
2018-06-30T00:24:34.133Z,992.22
2018-06-30T00:25:34.307Z,992.21
2018-06-30T00:26:34.486Z,992.21
2018-06-30T00:27:34.672Z,992.16
2018-06-30T00:28:34.854Z,992.17
2018-06-30T00:29:35.036Z,992.19
2018-06-30T00:30:35.213Z,992.21
2018-06-30T00:31:35.385Z,992.19
2018-06-30T00:32:35.560Z,992.18
2018-06-30T00:33:35.737Z,992.20
2018-06-30T00:34:35.916Z,992.16
2018-06-30T00:35:36.091Z,992.15
2018-06-30T00:36:36.264Z,992.14
2018-06-30T00:37:36.437Z,992.21
2018-06-30T00:38:36.615Z,992.16
2018-06-30T00:39:36.795Z,992.19
2018-06-30T00:40:36.980Z,992.17
2018-06-30T00:41:37.157Z,992.19
2018-06-30T00:42:37.339Z,992.20
2018-06-30T00:43:37.508Z,992.22
2018-06-30T00:44:37.688Z,992.20
2018-06-30T00:45:37.865Z,992.18
2018-06-30T00:46:38.043Z,992.18
2018-06-30T00:47:38.215Z,992.20
2018-06-30T00:48:38.481Z,992.23
2018-06-30T00:49:38.574Z,992.23
2018-06-30T00:50:38.749Z,992.22
2018-06-30T00:51:38.934Z,992.22
2018-06-30T00:52:39.117Z,992.24
2018-06-30T00:53:39.278Z,992.27
2018-06-30T00:54:39.462Z,992.26
2018-06-30T00:55:39.639Z,992.27
2018-06-30T00:56:39.816Z,992.26
2018-06-30T00:57:39.993Z,992.32
2018-06-30T00:58:40.178Z,992.32
2018-06-30T00:59:40.349Z,992.34
2018-06-30T01:00:40.530Z,992.33
2018-06-30T01:01:40.710Z,992.36
2018-06-30T01:02:40.899Z,992.35
2018-06-30T01:03:41.082Z,992.39
2018-06-30T01:04:41.251Z,992.42
2018-06-30T01:05:41.430Z,992.42
2018-06-30T01:06:41.611Z,992.41
2018-06-30T01:07:41.790Z,992.46
2018-06-30T01:08:41.970Z,992.45
2018-06-30T01:09:42.146Z,992.46
2018-06-30T01:10:42.320Z,992.48
2018-06-30T01:11:42.498Z,992.48
2018-06-30T01:12:42.667Z,992.50
2018-06-30T01:13:42.852Z,992.47
2018-06-30T01:14:43.025Z,992.44
2018-06-30T01:15:43.204Z,992.48
2018-06-30T01:16:43.387Z,992.44
2018-06-30T01:17:43.557Z,992.48
2018-06-30T01:18:43.732Z,992.51
2018-06-30T01:19:43.916Z,992.45
2018-06-30T01:20:44.090Z,992.46
2018-06-30T01:21:44.267Z,992.49
2018-06-30T01:22:44.443Z,992.44
2018-06-30T01:23:44.622Z,992.47
2018-06-30T01:24:44.805Z,992.43
2018-06-30T01:25:44.980Z,992.45
2018-06-30T01:26:45.158Z,992.51
2018-06-30T01:27:45.336Z,992.43
2018-06-30T01:28:45.517Z,992.47
2018-06-30T01:29:45.693Z,992.44
2018-06-30T01:30:45.875Z,992.47
2018-06-30T01:31:46.051Z,992.45
2018-06-30T01:32:46.238Z,992.43
2018-06-30T01:33:46.407Z,992.44
2018-06-30T01:34:46.583Z,992.41
2018-06-30T01:35:46.754Z,992.39
2018-06-30T01:36:46.931Z,992.45
2018-06-30T01:37:47.116Z,992.49
2018-06-30T01:38:47.301Z,992.43
2018-06-30T01:39:47.483Z,992.41
2018-06-30T01:40:47.659Z,992.41
2018-06-30T01:41:47.833Z,992.40
2018-06-30T01:42:48.007Z,992.42
2018-06-30T01:43:48.184Z,992.45
2018-06-30T01:44:48.355Z,992.43
2018-06-30T01:45:48.527Z,992.40
2018-06-30T01:46:48.705Z,992.41
2018-06-30T01:47:48.884Z,992.41
2018-06-30T01:48:49.064Z,992.42
2018-06-30T01:49:49.235Z,992.37
2018-06-30T01:50:49.418Z,992.39
2018-06-30T01:51:49.603Z,992.39
2018-06-30T01:52:52.227Z,992.40
2018-06-30T01:53:51.608Z,992.40
2018-06-30T01:54:50.388Z,992.40
2018-06-30T01:55:50.349Z,992.41
2018-06-30T01:56:50.531Z,992.40
2018-06-30T01:57:50.708Z,992.44
2018-06-30T01:58:50.901Z,992.46
2018-06-30T01:59:51.077Z,992.44
2018-06-30T02:00:51.254Z,992.44
2018-06-30T02:01:51.463Z,992.49
2018-06-30T02:02:51.646Z,992.48
2018-06-30T02:03:51.821Z,992.50
2018-06-30T02:04:51.999Z,992.48
2018-06-30T02:05:52.179Z,992.46
2018-06-30T02:06:52.352Z,992.50
2018-06-30T02:07:52.525Z,992.50
2018-06-30T02:08:52.703Z,992.44
2018-06-30T02:09:52.878Z,992.51
2018-06-30T02:10:53.053Z,992.50
2018-06-30T02:11:53.232Z,992.51
2018-06-30T02:12:53.414Z,992.51
2018-06-30T02:13:53.587Z,992.52
2018-06-30T02:14:53.770Z,992.52
2018-06-30T02:15:53.947Z,992.51
2018-06-30T02:16:54.126Z,992.51
2018-06-30T02:17:54.309Z,992.47
2018-06-30T02:18:54.489Z,992.48
2018-06-30T02:19:54.667Z,992.48
2018-06-30T02:20:54.836Z,992.52
2018-06-30T02:21:55.013Z,992.49
2018-06-30T02:22:55.195Z,992.52
2018-06-30T02:23:55.373Z,992.46
2018-06-30T02:24:55.555Z,992.50
2018-06-30T02:25:55.735Z,992.45
2018-06-30T02:26:59.589Z,992.50
2018-06-30T02:27:56.024Z,992.51
2018-06-30T02:28:56.205Z,992.49
2018-06-30T02:29:56.398Z,992.52
2018-06-30T02:30:56.578Z,992.51
2018-06-30T02:31:56.759Z,992.55
2018-06-30T02:32:56.945Z,992.55
2018-06-30T02:33:57.125Z,992.56
2018-06-30T02:34:57.306Z,992.57
2018-06-30T02:35:57.485Z,992.56
2018-06-30T02:36:57.670Z,992.58
2018-06-30T02:37:57.845Z,992.59
2018-06-30T02:38:58.077Z,992.58
2018-06-30T02:39:58.210Z,992.63
2018-06-30T02:40:58.389Z,992.55
2018-06-30T02:41:58.567Z,992.60
2018-06-30T02:42:58.750Z,992.55
2018-06-30T02:43:58.938Z,992.56
2018-06-30T02:44:59.111Z,992.55
2018-06-30T02:45:59.351Z,992.59
2018-06-30T02:46:59.470Z,992.58
2018-06-30T02:47:59.645Z,992.56
2018-06-30T02:48:59.825Z,992.57
2018-06-30T02:50:00.007Z,992.57
2018-06-30T02:51:00.188Z,992.60
2018-06-30T02:52:00.360Z,992.56
2018-06-30T02:53:00.541Z,992.59
2018-06-30T02:54:00.711Z,992.58
2018-06-30T02:55:00.880Z,992.58
2018-06-30T02:56:01.065Z,992.60
2018-06-30T02:57:01.237Z,992.63
2018-06-30T02:58:01.422Z,992.63
2018-06-30T02:59:01.597Z,992.65
2018-06-30T03:00:01.780Z,992.64
2018-06-30T03:01:01.955Z,992.64
2018-06-30T03:02:02.130Z,992.67
2018-06-30T03:03:02.309Z,992.65
2018-06-30T03:04:02.478Z,992.64
2018-06-30T03:05:02.660Z,992.61
2018-06-30T03:06:02.840Z,992.65
2018-06-30T03:07:03.012Z,992.67
2018-06-30T03:08:03.189Z,992.69
2018-06-30T03:09:03.364Z,992.69
2018-06-30T03:10:03.542Z,992.68
2018-06-30T03:11:03.717Z,992.68
2018-06-30T03:12:03.896Z,992.68
2018-06-30T03:13:04.081Z,992.67
2018-06-30T03:14:04.254Z,992.60
2018-06-30T03:15:04.432Z,992.66
2018-06-30T03:16:04.605Z,992.60
2018-06-30T03:17:04.788Z,992.62
2018-06-30T03:18:04.968Z,992.60
2018-06-30T03:19:05.145Z,992.62
2018-06-30T03:20:05.325Z,992.60
2018-06-30T03:21:05.494Z,992.59
2018-06-30T03:22:05.677Z,992.60
2018-06-30T03:23:05.843Z,992.59
2018-06-30T03:24:06.027Z,992.58
2018-06-30T03:25:06.204Z,992.59
2018-06-30T03:26:06.377Z,992.58
2018-06-30T03:27:06.554Z,992.57
2018-06-30T03:28:06.729Z,992.61
2018-06-30T03:29:06.921Z,992.61
2018-06-30T03:30:07.096Z,992.62
2018-06-30T03:31:07.271Z,992.64
2018-06-30T03:32:07.444Z,992.61
2018-06-30T03:33:07.631Z,992.59
2018-06-30T03:34:07.814Z,992.59
2018-06-30T03:35:07.997Z,992.56
2018-06-30T03:36:08.177Z,992.57
2018-06-30T03:37:08.346Z,992.57
2018-06-30T03:38:08.523Z,992.59
2018-06-30T03:39:08.708Z,992.61
2018-06-30T03:40:08.884Z,992.63
2018-06-30T03:41:09.061Z,992.64
2018-06-30T03:42:09.240Z,992.65
2018-06-30T03:43:09.415Z,992.68
2018-06-30T03:44:09.593Z,992.68
2018-06-30T03:45:09.768Z,992.68
2018-06-30T03:46:10.005Z,992.68
2018-06-30T03:47:10.130Z,992.65
2018-06-30T03:48:10.312Z,992.67
2018-06-30T03:49:10.484Z,992.69
2018-06-30T03:50:10.665Z,992.65
2018-06-30T03:51:10.847Z,992.69
2018-06-30T03:52:11.024Z,992.66
2018-06-30T03:53:11.195Z,992.72
2018-06-30T03:54:11.373Z,992.70
2018-06-30T03:55:11.549Z,992.69
2018-06-30T03:56:11.733Z,992.71
2018-06-30T03:57:11.912Z,992.70
2018-06-30T03:58:12.083Z,992.69
2018-06-30T03:59:12.262Z,992.69
2018-06-30T04:00:12.451Z,992.75
2018-06-30T04:01:12.627Z,992.78
2018-06-30T04:02:12.885Z,992.76
2018-06-30T04:03:13.021Z,992.76
2018-06-30T04:04:13.195Z,992.74
2018-06-30T04:05:13.372Z,992.78
2018-06-30T04:06:13.548Z,992.75
2018-06-30T04:07:13.729Z,992.77
2018-06-30T04:08:13.906Z,992.84
2018-06-30T04:09:14.086Z,992.84
2018-06-30T04:10:14.269Z,992.76
2018-06-30T04:11:14.446Z,992.80
2018-06-30T04:12:14.629Z,992.83
2018-06-30T04:13:14.802Z,992.83
2018-06-30T04:14:14.987Z,992.83
2018-06-30T04:15:15.163Z,992.85
2018-06-30T04:16:15.347Z,992.83
2018-06-30T04:17:15.523Z,992.89
2018-06-30T04:18:15.700Z,992.85
2018-06-30T04:19:15.875Z,992.91
2018-06-30T04:20:16.054Z,992.88
2018-06-30T04:21:16.239Z,992.89
2018-06-30T04:22:16.428Z,992.92
2018-06-30T04:23:16.610Z,992.90
2018-06-30T04:24:16.786Z,992.95
2018-06-30T04:25:16.962Z,992.90
2018-06-30T04:26:17.150Z,992.95
2018-06-30T04:27:17.336Z,992.94
2018-06-30T04:28:17.513Z,992.96
2018-06-30T04:29:17.692Z,993.00
2018-06-30T04:30:17.862Z,992.95
2018-06-30T04:31:18.045Z,992.99
2018-06-30T04:32:18.241Z,992.96
2018-06-30T04:33:18.414Z,992.97
2018-06-30T04:34:18.596Z,993.00
2018-06-30T04:35:18.769Z,992.99
2018-06-30T04:36:18.949Z,992.96
2018-06-30T04:37:19.127Z,992.99
2018-06-30T04:38:19.304Z,992.98
2018-06-30T04:39:19.480Z,992.97
2018-06-30T04:40:19.658Z,992.97
2018-06-30T04:41:19.836Z,992.90
2018-06-30T04:42:20.016Z,992.95
2018-06-30T04:43:20.198Z,992.97
2018-06-30T04:44:20.384Z,992.97
2018-06-30T04:45:20.626Z,992.91
2018-06-30T04:46:20.742Z,992.90
2018-06-30T04:47:20.920Z,992.93
2018-06-30T04:48:21.103Z,992.98
2018-06-30T04:49:21.288Z,992.97
2018-06-30T04:50:21.465Z,993.02
2018-06-30T04:51:21.649Z,992.98
2018-06-30T04:52:21.846Z,993.04
2018-06-30T04:53:22.025Z,993.03
2018-06-30T04:54:22.202Z,993.06
2018-06-30T04:55:22.379Z,993.04
2018-06-30T04:56:22.629Z,993.11
2018-06-30T04:57:22.685Z,993.10
2018-06-30T04:58:22.864Z,993.09
2018-06-30T04:59:23.060Z,993.07
2018-06-30T05:00:23.226Z,993.08
2018-06-30T05:01:23.427Z,993.09
2018-06-30T05:02:23.582Z,993.09
2018-06-30T05:03:23.760Z,993.11
2018-06-30T05:04:23.938Z,993.15
2018-06-30T05:05:24.128Z,993.12
2018-06-30T05:06:24.369Z,993.15
2018-06-30T05:07:24.524Z,993.13
2018-06-30T05:08:24.708Z,993.16
2018-06-30T05:09:24.878Z,993.16
2018-06-30T05:10:25.066Z,993.17
2018-06-30T05:11:25.243Z,993.18
2018-06-30T05:12:25.451Z,993.18
2018-06-30T05:13:25.634Z,993.21
2018-06-30T05:14:25.822Z,993.22
2018-06-30T05:15:26.037Z,993.20
2018-06-30T05:16:26.213Z,993.25
2018-06-30T05:17:26.396Z,993.22
2018-06-30T05:18:26.578Z,993.20
2018-06-30T05:19:26.749Z,993.26
2018-06-30T05:20:26.934Z,993.22
2018-06-30T05:21:27.110Z,993.28
2018-06-30T05:22:27.290Z,993.31
2018-06-30T05:23:27.480Z,993.32
2018-06-30T05:24:27.657Z,993.34
2018-06-30T05:25:27.866Z,993.34
2018-06-30T05:26:28.039Z,993.37
2018-06-30T05:27:28.212Z,993.35
2018-06-30T05:28:28.389Z,993.40
2018-06-30T05:29:28.672Z,993.40
2018-06-30T05:30:28.735Z,993.43
2018-06-30T05:31:28.912Z,993.42
2018-06-30T05:32:29.088Z,993.46
2018-06-30T05:33:29.412Z,993.47
2018-06-30T05:34:29.462Z,993.48
2018-06-30T05:35:29.648Z,993.55
2018-06-30T05:36:29.935Z,993.53
2018-06-30T05:37:30.032Z,993.50
2018-06-30T05:38:30.203Z,993.52
2018-06-30T05:39:30.380Z,993.49
2018-06-30T05:40:30.575Z,993.51
2018-06-30T05:41:30.765Z,993.56
2018-06-30T05:42:30.954Z,993.54
2018-06-30T05:43:31.140Z,993.55
2018-06-30T05:44:31.330Z,993.53
2018-06-30T05:45:31.499Z,993.55
2018-06-30T05:46:31.674Z,993.55
2018-06-30T05:47:31.862Z,993.54
2018-06-30T05:48:32.041Z,993.54
2018-06-30T05:49:32.214Z,993.56
2018-06-30T05:50:32.392Z,993.58
2018-06-30T05:51:32.577Z,993.62
2018-06-30T05:52:32.751Z,993.62
2018-06-30T05:53:32.923Z,993.62
2018-06-30T05:54:33.100Z,993.63
2018-06-30T05:55:33.277Z,993.61
2018-06-30T05:56:33.454Z,993.64
2018-06-30T05:57:33.635Z,993.69
2018-06-30T05:58:33.814Z,993.69
2018-06-30T05:59:34.007Z,993.73
2018-06-30T06:00:34.177Z,993.72
2018-06-30T06:01:34.374Z,993.70
2018-06-30T06:02:34.563Z,993.79
2018-06-30T06:03:34.738Z,993.78
2018-06-30T06:04:34.919Z,993.80
2018-06-30T06:05:35.099Z,993.83
2018-06-30T06:06:35.278Z,993.85
2018-06-30T06:07:35.455Z,993.84
2018-06-30T06:08:35.631Z,993.92
2018-06-30T06:09:35.814Z,993.99
2018-06-30T06:10:36.447Z,994.15
2018-06-30T06:11:36.148Z,994.28
2018-06-30T06:12:36.327Z,994.50
2018-06-30T06:13:36.513Z,994.68
2018-06-30T06:14:36.706Z,994.76
2018-06-30T06:15:36.876Z,994.89
2018-06-30T06:16:37.054Z,994.91
2018-06-30T06:17:37.233Z,994.92
2018-06-30T06:18:37.420Z,994.97
2018-06-30T06:19:37.621Z,995.01
2018-06-30T06:20:37.782Z,994.94
2018-06-30T06:21:41.077Z,995.81
2018-06-30T06:22:40.153Z,996.70
2018-06-30T06:23:39.497Z,995.27
2018-06-30T06:24:40.521Z,996.99
2018-06-30T06:25:38.684Z,996.03
2018-06-30T06:26:38.877Z,997.04
2018-06-30T06:27:39.079Z,996.91
2018-06-30T06:28:39.277Z,996.95
2018-06-30T06:29:39.465Z,996.99
2018-06-30T06:30:39.652Z,996.89
2018-06-30T06:31:39.833Z,996.84
2018-06-30T06:32:40.112Z,996.65
2018-06-30T06:33:40.214Z,996.71
2018-06-30T06:34:40.396Z,996.67
2018-06-30T06:35:40.587Z,996.54
2018-06-30T06:36:40.772Z,996.56
2018-06-30T06:37:40.971Z,996.58
2018-06-30T06:38:41.184Z,996.20
2018-06-30T06:39:41.358Z,996.21
2018-06-30T06:40:41.547Z,996.47
2018-06-30T06:41:41.797Z,996.47
2018-06-30T06:42:41.929Z,996.44
2018-06-30T06:43:42.120Z,996.04
2018-06-30T06:44:42.303Z,996.45
2018-06-30T06:45:42.493Z,995.70
2018-06-30T06:46:42.671Z,996.40
2018-06-30T06:47:42.859Z,996.30
2018-06-30T06:48:43.039Z,996.23
2018-06-30T06:49:43.231Z,996.16
2018-06-30T06:50:43.481Z,996.17
2018-06-30T06:51:43.639Z,996.12
2018-06-30T06:52:43.836Z,996.15
2018-06-30T06:53:44.082Z,996.11
2018-06-30T06:54:44.147Z,996.13
2018-06-30T06:55:44.321Z,996.10
2018-06-30T06:56:44.512Z,996.07
2018-06-30T06:57:44.694Z,996.08
2018-06-30T06:58:44.885Z,996.05
2018-06-30T06:59:45.074Z,995.96
2018-06-30T07:00:45.306Z,995.96
2018-06-30T07:01:45.494Z,995.97
2018-06-30T07:02:48.286Z,995.94
2018-06-30T07:03:45.944Z,995.94
2018-06-30T07:04:46.123Z,995.90
2018-06-30T07:05:46.307Z,995.91
2018-06-30T07:06:46.505Z,995.88
2018-06-30T07:07:46.682Z,995.90
2018-06-30T07:08:46.882Z,995.84
2018-06-30T07:09:47.069Z,995.92
2018-06-30T07:10:47.273Z,995.84
2018-06-30T07:11:47.619Z,995.83
2018-06-30T07:12:47.656Z,995.79
2018-06-30T07:13:47.851Z,995.77
2018-06-30T07:14:48.048Z,995.90
2018-06-30T07:15:48.252Z,995.25
2018-06-30T07:16:48.436Z,995.88
2018-06-30T07:17:48.634Z,995.84
2018-06-30T07:18:48.840Z,995.85
2018-06-30T07:19:49.029Z,995.79
2018-06-30T07:20:49.227Z,995.82
2018-06-30T07:21:49.417Z,995.82
2018-06-30T07:22:49.618Z,995.82
2018-06-30T07:23:49.850Z,995.77
2018-06-30T07:24:50.027Z,995.72
2018-06-30T07:25:50.215Z,995.64
2018-06-30T07:26:50.418Z,995.71
2018-06-30T07:27:50.603Z,995.66
2018-06-30T07:28:50.812Z,995.64
2018-06-30T07:29:51.013Z,995.58
2018-06-30T07:30:51.211Z,995.57
2018-06-30T07:31:51.394Z,995.54
2018-06-30T07:32:51.584Z,995.52
2018-06-30T07:33:51.772Z,995.46
2018-06-30T07:34:51.957Z,994.14
2018-06-30T07:35:52.162Z,995.50
2018-06-30T07:36:52.348Z,995.45
2018-06-30T07:37:52.542Z,995.47
2018-06-30T07:38:52.729Z,995.48
2018-06-30T07:39:52.914Z,994.95
2018-06-30T07:40:53.107Z,995.56
2018-06-30T07:41:53.298Z,995.48
2018-06-30T07:42:53.489Z,994.82
2018-06-30T07:43:53.677Z,995.49
2018-06-30T07:44:53.867Z,995.54
2018-06-30T07:45:54.058Z,994.42
2018-06-30T07:46:54.261Z,995.50
2018-06-30T07:47:54.454Z,995.44
2018-06-30T07:48:54.648Z,995.43
2018-06-30T07:49:54.836Z,995.51
2018-06-30T07:50:55.020Z,995.10
2018-06-30T07:51:55.221Z,995.52
2018-06-30T07:52:55.420Z,995.43
2018-06-30T07:53:55.616Z,995.51
2018-06-30T07:54:55.823Z,995.48
2018-06-30T07:55:56.007Z,995.45
2018-06-30T07:56:56.195Z,995.49
2018-06-30T07:57:56.393Z,995.57
2018-06-30T07:58:56.586Z,995.50
2018-06-30T07:59:56.773Z,995.57
2018-06-30T08:00:56.968Z,995.61
2018-06-30T08:01:57.219Z,995.61
2018-06-30T08:02:57.351Z,995.54
2018-06-30T08:03:57.548Z,995.59
2018-06-30T08:04:57.998Z,995.57
2018-06-30T08:05:57.947Z,995.53
2018-06-30T08:06:58.509Z,995.55
2018-06-30T08:07:58.291Z,995.50
2018-06-30T08:08:58.574Z,995.54
2018-06-30T08:09:58.718Z,995.49
2018-06-30T08:10:58.930Z,995.47
2018-06-30T08:11:58.986Z,994.75
2018-06-30T08:12:59.185Z,995.48
2018-06-30T08:13:59.422Z,995.51
2018-06-30T08:14:59.489Z,995.49
2018-06-30T08:15:59.689Z,995.54
2018-06-30T08:17:00.041Z,995.49
2018-06-30T08:18:00.121Z,995.49
2018-06-30T08:19:00.319Z,995.01
2018-06-30T08:20:00.540Z,994.39
2018-06-30T08:21:00.726Z,994.13
2018-06-30T08:22:00.919Z,995.59
2018-06-30T08:23:01.106Z,995.52
2018-06-30T08:24:01.290Z,995.53
2018-06-30T08:25:01.485Z,994.44
2018-06-30T08:26:01.684Z,995.51
2018-06-30T08:27:01.857Z,995.52
2018-06-30T08:28:02.050Z,995.51
2018-06-30T08:29:02.292Z,995.55
2018-06-30T08:30:02.507Z,995.57
2018-06-30T08:31:02.673Z,995.59
2018-06-30T08:32:02.900Z,995.63
2018-06-30T08:33:03.077Z,995.62
2018-06-30T08:34:03.261Z,994.51
2018-06-30T08:35:03.445Z,995.71
2018-06-30T08:36:03.642Z,995.74
2018-06-30T08:37:03.839Z,995.66
2018-06-30T08:38:04.012Z,995.64
2018-06-30T08:39:04.217Z,995.60
2018-06-30T08:40:04.406Z,995.58
2018-06-30T08:41:04.786Z,995.54
2018-06-30T08:42:05.047Z,995.58
2018-06-30T08:43:05.307Z,995.53
2018-06-30T08:44:05.301Z,995.55
2018-06-30T08:45:05.533Z,994.69
2018-06-30T08:46:05.511Z,995.53
2018-06-30T08:47:05.980Z,995.55
2018-06-30T08:48:05.979Z,995.60
2018-06-30T08:49:06.172Z,995.60
2018-06-30T08:50:06.397Z,995.58
2018-06-30T08:51:06.640Z,995.62
2018-06-30T08:52:06.781Z,995.50
2018-06-30T08:53:07.093Z,995.33
2018-06-30T08:54:07.462Z,995.22
2018-06-30T08:55:07.316Z,995.11
2018-06-30T08:56:07.511Z,995.21
2018-06-30T08:57:07.718Z,995.21
2018-06-30T08:58:07.927Z,995.24
2018-06-30T08:59:08.138Z,995.26
2018-06-30T09:00:08.374Z,995.24
2018-06-30T09:01:08.564Z,995.23
2018-06-30T09:02:08.822Z,995.25
2018-06-30T09:03:09.084Z,995.25
2018-06-30T09:04:09.048Z,995.16
2018-06-30T09:05:09.278Z,995.31
2018-06-30T09:06:09.819Z,995.27
2018-06-30T09:07:09.518Z,995.24
2018-06-30T09:08:09.739Z,995.20
2018-06-30T09:09:09.941Z,995.24
2018-06-30T09:10:10.133Z,995.26
2018-06-30T09:11:10.334Z,995.16
2018-06-30T09:12:10.560Z,995.12
2018-06-30T09:13:10.743Z,995.17
2018-06-30T09:14:10.934Z,995.26
2018-06-30T09:15:11.241Z,995.36
2018-06-30T09:16:11.340Z,995.43
2018-06-30T09:17:11.783Z,995.35
2018-06-30T09:18:11.745Z,995.29
2018-06-30T09:19:11.973Z,995.23
2018-06-30T09:20:13.622Z,995.25
2018-06-30T09:21:13.433Z,995.26
2018-06-30T09:22:12.390Z,995.28
2018-06-30T09:23:14.389Z,995.30
2018-06-30T09:24:13.589Z,995.25
2018-06-30T09:25:17.380Z,995.29
2018-06-30T09:26:13.186Z,995.28
2018-06-30T09:27:13.254Z,995.26
2018-06-30T09:28:13.548Z,995.26
2018-06-30T09:29:13.640Z,995.28
2018-06-30T09:30:13.875Z,995.28
2018-06-30T09:31:14.048Z,995.22
2018-06-30T09:32:16.201Z,995.27
2018-06-30T09:33:15.950Z,995.26
2018-06-30T09:34:15.167Z,995.24
2018-06-30T09:35:14.766Z,995.18
2018-06-30T09:36:15.105Z,995.16
2018-06-30T09:37:15.145Z,995.14
2018-06-30T09:38:15.341Z,995.18
2018-06-30T09:39:15.531Z,995.10
2018-06-30T09:40:17.195Z,995.21
2018-06-30T09:41:19.423Z,995.19
2018-06-30T09:42:16.064Z,995.18
2018-06-30T09:43:16.258Z,995.17
2018-06-30T09:44:16.452Z,995.12
2018-06-30T09:45:16.642Z,995.13
2018-06-30T09:46:16.831Z,995.16
2018-06-30T09:47:17.036Z,995.13
2018-06-30T09:48:17.233Z,995.12
2018-06-30T09:49:17.459Z,995.09
2018-06-30T09:50:17.611Z,995.27
2018-06-30T09:51:17.800Z,995.26
2018-06-30T09:52:17.987Z,995.19
2018-06-30T09:53:18.182Z,995.20
2018-06-30T09:54:18.382Z,995.27
2018-06-30T09:55:18.569Z,995.20
2018-06-30T09:56:18.761Z,995.21
2018-06-30T09:57:18.954Z,995.18
2018-06-30T09:58:19.158Z,995.21
2018-06-30T09:59:19.352Z,995.03
2018-06-30T10:00:19.567Z,995.06
2018-06-30T10:01:19.788Z,994.98
2018-06-30T10:02:20.054Z,994.99
2018-06-30T10:03:20.109Z,994.99
2018-06-30T10:04:20.317Z,994.92
2018-06-30T10:05:20.509Z,994.93
2018-06-30T10:06:20.747Z,994.86
2018-06-30T10:07:20.888Z,994.84
2018-06-30T10:08:21.072Z,994.89
2018-06-30T10:09:21.257Z,994.84
2018-06-30T10:10:21.450Z,994.87
2018-06-30T10:11:21.635Z,994.85
2018-06-30T10:12:21.816Z,994.79
2018-06-30T10:13:22.006Z,994.73
2018-06-30T10:14:22.200Z,994.69
2018-06-30T10:15:22.403Z,994.67
2018-06-30T10:16:22.593Z,994.65
2018-06-30T10:17:22.792Z,994.57
2018-06-30T10:18:22.981Z,994.49
2018-06-30T10:19:23.215Z,994.54
2018-06-30T10:20:23.352Z,994.45
2018-06-30T10:21:23.544Z,994.42
2018-06-30T10:22:23.731Z,994.35
2018-06-30T10:23:23.922Z,994.30
2018-06-30T10:24:24.107Z,994.29
2018-06-30T10:25:24.304Z,994.24
2018-06-30T10:26:24.503Z,994.27
2018-06-30T10:27:24.693Z,994.28
2018-06-30T10:28:24.879Z,994.29
2018-06-30T10:29:25.069Z,994.30
2018-06-30T10:30:25.283Z,994.28
2018-06-30T10:31:25.459Z,994.36
2018-06-30T10:32:25.654Z,994.35
2018-06-30T10:33:25.897Z,994.31
2018-06-30T10:34:26.030Z,994.33
2018-06-30T10:35:26.217Z,994.31
2018-06-30T10:36:26.402Z,994.30
2018-06-30T10:37:26.649Z,994.24
2018-06-30T10:38:26.776Z,994.22
2018-06-30T10:39:26.960Z,994.29
2018-06-30T10:40:27.145Z,994.30
2018-06-30T10:41:27.325Z,994.27
2018-06-30T10:42:27.517Z,994.19
2018-06-30T10:43:27.702Z,994.09
2018-06-30T10:44:27.922Z,994.03
2018-06-30T10:45:28.070Z,994.03
2018-06-30T10:46:28.253Z,994.01
2018-06-30T10:47:28.450Z,994.00
2018-06-30T10:48:28.631Z,993.98
2018-06-30T10:49:28.813Z,994.01
2018-06-30T10:50:29.006Z,994.10
2018-06-30T10:51:29.193Z,994.04
2018-06-30T10:52:29.379Z,994.00
2018-06-30T10:53:29.567Z,993.94
2018-06-30T10:54:29.758Z,993.92
2018-06-30T10:55:29.960Z,993.93
2018-06-30T10:56:30.123Z,993.88
2018-06-30T10:57:30.315Z,993.85
2018-06-30T10:58:30.508Z,994.00
2018-06-30T10:59:30.696Z,993.90
2018-06-30T11:00:31.111Z,993.84
2018-06-30T11:01:31.070Z,993.80
2018-06-30T11:02:31.258Z,993.74
2018-06-30T11:03:31.451Z,993.78
2018-06-30T11:04:31.641Z,993.78
2018-06-30T11:05:31.820Z,993.87
2018-06-30T11:06:32.028Z,993.81
2018-06-30T11:07:32.295Z,993.81
2018-06-30T11:08:32.351Z,993.82
2018-06-30T11:09:32.526Z,993.77
2018-06-30T11:10:32.712Z,993.77
2018-06-30T11:11:32.899Z,993.80
2018-06-30T11:12:33.083Z,993.76
2018-06-30T11:13:33.276Z,993.88
2018-06-30T11:14:33.677Z,993.83
2018-06-30T11:15:33.637Z,993.81
2018-06-30T11:16:33.824Z,993.74
2018-06-30T11:17:34.045Z,993.87
2018-06-30T11:18:34.192Z,993.84
2018-06-30T11:19:34.369Z,993.77
2018-06-30T11:20:34.559Z,993.74
2018-06-30T11:21:34.738Z,993.78
2018-06-30T11:22:34.924Z,993.73
2018-06-30T11:23:35.193Z,993.78
2018-06-30T11:24:35.257Z,993.72
2018-06-30T11:25:35.442Z,993.64
2018-06-30T11:26:35.680Z,993.70
2018-06-30T11:27:36.054Z,993.72
2018-06-30T11:28:35.876Z,993.72
2018-06-30T11:29:36.298Z,993.84
2018-06-30T11:30:36.249Z,993.80
2018-06-30T11:31:36.525Z,993.77
2018-06-30T11:32:36.718Z,993.71
2018-06-30T11:33:37.273Z,993.69
2018-06-30T11:34:36.982Z,993.65
2018-06-30T11:35:37.234Z,993.72
2018-06-30T11:36:37.482Z,993.69
2018-06-30T11:37:38.586Z,993.71
2018-06-30T11:38:37.746Z,993.72
2018-06-30T11:39:37.788Z,993.73
2018-06-30T11:40:38.043Z,993.71
2018-06-30T11:41:38.162Z,993.68
2018-06-30T11:42:38.365Z,993.64
2018-06-30T11:43:38.533Z,993.60
2018-06-30T11:44:39.070Z,993.58
2018-06-30T11:45:38.908Z,993.62
2018-06-30T11:46:39.111Z,993.75
2018-06-30T11:47:39.300Z,993.67
2018-06-30T11:48:39.499Z,993.63
2018-06-30T11:49:39.897Z,993.64
2018-06-30T11:50:40.348Z,993.59
2018-06-30T11:51:40.114Z,993.65
2018-06-30T11:52:40.311Z,993.63
2018-06-30T11:53:40.742Z,993.56
2018-06-30T11:54:40.917Z,993.66
2018-06-30T11:55:40.746Z,993.62
2018-06-30T11:56:40.951Z,993.64
2018-06-30T11:57:41.135Z,993.56
2018-06-30T11:58:41.323Z,993.58
2018-06-30T11:59:41.508Z,993.57
2018-06-30T12:00:41.687Z,993.53
2018-06-30T12:01:41.869Z,993.54
2018-06-30T12:02:42.057Z,993.52
2018-06-30T12:03:42.520Z,993.52
2018-06-30T12:04:42.438Z,993.50
2018-06-30T12:05:42.622Z,993.50
2018-06-30T12:06:42.808Z,993.48
2018-06-30T12:07:43.007Z,993.48
2018-06-30T12:08:43.200Z,993.42
2018-06-30T12:09:43.382Z,993.53
2018-06-30T12:10:43.564Z,993.52
2018-06-30T12:11:43.747Z,993.61
2018-06-30T12:12:43.952Z,993.57
2018-06-30T12:13:44.134Z,993.53
2018-06-30T12:14:44.318Z,993.51
2018-06-30T12:15:44.529Z,993.50
2018-06-30T12:16:44.704Z,993.46
2018-06-30T12:17:44.900Z,993.46
2018-06-30T12:18:45.075Z,993.45
2018-06-30T12:19:45.257Z,993.45
2018-06-30T12:20:45.449Z,993.56
2018-06-30T12:21:45.638Z,993.49
2018-06-30T12:22:45.858Z,993.47
2018-06-30T12:23:46.030Z,993.46
2018-06-30T12:24:46.243Z,993.43
2018-06-30T12:25:46.422Z,993.46
2018-06-30T12:26:46.620Z,993.43
2018-06-30T12:27:46.796Z,993.45
2018-06-30T12:28:46.982Z,993.46
2018-06-30T12:29:47.155Z,993.45
2018-06-30T12:30:47.346Z,993.46